Starkweather, North Dakota
Current Conditions -  °F | °C
As of 9:15 AM on Sunday 21 Dec 2014 (Local Time) from K9D7 Reporting Station
Clear Clear  
Wind Chill:   Ceiling: Unl
Heat Index: 14°   Visibility: 9mi
Dew Point: 12°   Wind: 7mph
Humidity: 93%   Direction: 150°SSE
Pressure: 29.6"   Gusts: NA
Location:  48.45°N, 98.88°W
Report Text: K9D7 211515Z AUTO 15006KT 9SM CLR M10/M11 A2960 RMK AO2
Loading
Personal Weather Stations






























Interactive Weather Map New forecast layout! Learn more

10-Day Weather Forecast

Advertisements
Track Severe Weather on mobile